Mabel, MN (55954)

6:36 PM CDT on April 21, 2015 (GMT -0500)
Spring Grove | | Change Station
CLOSE
Current Station
Personal Weather Station
Location: Minnesota, MN
Elevation: 1335 ft
Nearby Weather Stations
Active Advisory: Special Statement Active Notice: Public Information Statement

Elev 1335 ft 43.56 °N, 91.63 °W | Updated 6 seconds ago

Overcast
Overcast
39.5 °F
Feels Like 40 °F
N
2.5
Wind Variable Wind from South
Gusts 10.5 mph

Today
High -- | Low -- °F
--% Chance of Precip.
Yesterday
High -- | Low -- °F
Precip. -- in
6:15 AM 7:57 PM
Waxing Crescent, 13% visible
Pressure 29.68 in
Visibility 10.0 miles
Clouds Few 3600 ft
Overcast 4800 ft
Windchill 40 °F
Dew Point 22 °F
Humidity 50%
Rainfall 0.00 in
Snow Depth Not available.
UV 0 out of 12
Pollen 10.00 out of 12
Air Quality Not available.
Flu Activity Local Activity
METAR KDEH 212315Z AUTO 30017G28KT 260V320 10SM FEW036 OVC048 04/M03 A2968 RMK AO2

More Conditions Fewer Conditions

Pressure 29.68 in
Visibility 10.0 miles
Clouds Few 3600 ft
Overcast 4800 ft
Windchill 40 °F
Dew Point 22 °F
Humidity 50%
Rainfall 0.00 in
Snow Depth Not available.
UV 0 out of 12
Pollen 10.00 out of 12
Air Quality Not available.
Flu Activity Local Activity
METAR KDEH 212315Z AUTO 30017G28KT 260V320 10SM FEW036 OVC048 04/M03 A2968 RMK AO2

More Conditions Fewer Conditions

10-Day Weather Forecast

Almanac

Astronomy

Apr. 21, 2015 Rise Set
Actual Time
Civil Twilight
Nautical Twilight
Astronomical Twilight
Moon
Length of Visible Light
Length of Day
Tomorrow will be .
, % of the Moon is Illuminated

Today's Extremes

State Highs State Lows

Community

WunderPhotos

Upload Photos

1,815,579 photos uploaded!

WunderBlogs® & News

Nearby

Air Quality

  Air Quality AQ Index Pollutant
Not available.

Snow Depth

Station Depth Elevation

Earthquake Activity

City Distance Mag. Time & Date
Minimum magnitude displayed is 2.5.

Coastal Water Temperatures

Place Temperature

Stations

Nearby Weather Stations

Station Location Temp. Windchill Dew Point Humidity Wind Precip. Elev Updated Type
                   
Special Statement
Statement as of 6:08 PM CDT on April 21, 2015

... Decreasing winds this evening...

The strong west northwest winds will quickly diminish this
evening. Sustained winds will decrease from 20 to 30 mph to
10 to 20 mph by 9 PM this evening. The wind gusts will diminish
from near 40 mph to 25 mph during the aforementioned time.

These winds may make the travel difficult at times on east west
roads through 8 PM.


Boyne


608 PM CDT Tue Apr 21 2015

... Decreasing winds this evening...

The strong west northwest winds will quickly diminish this
evening. Sustained winds will decrease from 20 to 30 mph to
10 to 20 mph by 9 PM this evening. The wind gusts will diminish
from near 40 mph to 25 mph during the aforementioned time.

These winds may make the travel difficult at times on east west
roads through 8 PM.


Boyne